createdAt,value
2023-05-06T00:00:20.010Z,10.67
2023-05-06T00:02:47.280Z,10.66
2023-05-06T00:05:14.316Z,10.73
2023-05-06T00:07:41.918Z,10.64
2023-05-06T00:10:08.989Z,10.73
2023-05-06T00:12:35.635Z,10.75
2023-05-06T00:15:02.725Z,10.70
2023-05-06T00:17:29.508Z,10.77
2023-05-06T00:19:59.209Z,10.82
2023-05-06T00:22:26.076Z,10.95
2023-05-06T00:24:52.716Z,10.92
2023-05-06T00:27:19.279Z,10.91
2023-05-06T00:29:46.071Z,10.92
2023-05-06T00:32:12.745Z,11.04
2023-05-06T00:34:39.344Z,11.11
2023-05-06T00:37:06.166Z,10.99
2023-05-06T00:39:33.551Z,10.86
2023-05-06T00:42:03.482Z,10.85
2023-05-06T00:44:30.689Z,10.93
2023-05-06T00:46:58.786Z,11.07
2023-05-06T00:49:25.943Z,11.02
2023-05-06T00:51:57.052Z,10.81
2023-05-06T00:54:26.131Z,10.90
2023-05-06T00:56:53.979Z,10.94
2023-05-06T00:59:20.600Z,10.86
2023-05-06T01:01:47.482Z,10.83
2023-05-06T01:04:14.070Z,10.79
2023-05-06T01:06:51.121Z,10.78
2023-05-06T01:09:22.725Z,10.77
2023-05-06T01:12:03.470Z,10.82
2023-05-06T01:14:54.435Z,10.82
2023-05-06T01:17:26.591Z,10.76
2023-05-06T01:19:59.405Z,10.75
2023-05-06T01:22:27.180Z,10.68
2023-05-06T01:24:53.800Z,10.63
2023-05-06T01:27:20.744Z,10.50
2023-05-06T01:29:48.314Z,10.58
2023-05-06T01:32:23.280Z,10.54
2023-05-06T01:35:00.553Z,10.51
2023-05-06T01:38:06.357Z,10.46
2023-05-06T01:40:35.533Z,10.49
2023-05-06T01:43:05.065Z,10.48
2023-05-06T01:45:35.791Z,10.52
2023-05-06T01:48:02.702Z,10.58
2023-05-06T01:50:30.550Z,10.58
2023-05-06T01:53:02.165Z,10.51
2023-05-06T01:55:29.399Z,10.47
2023-05-06T01:57:59.056Z,10.48
2023-05-06T02:00:26.408Z,10.56
2023-05-06T02:02:53.348Z,10.60
2023-05-06T02:05:20.714Z,10.62
2023-05-06T02:07:47.278Z,10.55
2023-05-06T02:10:14.034Z,10.60
2023-05-06T02:12:40.761Z,10.63
2023-05-06T02:15:08.097Z,10.62
2023-05-06T02:17:36.471Z,10.63
2023-05-06T02:20:03.175Z,10.64
2023-05-06T02:22:29.988Z,10.61
2023-05-06T02:24:56.555Z,10.60
2023-05-06T02:27:23.260Z,10.61
2023-05-06T02:29:49.974Z,10.60
2023-05-06T02:32:16.513Z,10.58
2023-05-06T02:34:43.171Z,10.56
2023-05-06T02:37:09.824Z,10.65
2023-05-06T02:39:36.489Z,10.68
2023-05-06T02:42:03.928Z,10.67
2023-05-06T02:44:30.789Z,10.65
2023-05-06T02:46:57.414Z,10.68
2023-05-06T02:49:24.295Z,10.70
2023-05-06T02:51:51.069Z,10.72
2023-05-06T02:54:17.702Z,10.71
2023-05-06T02:56:46.329Z,10.74
2023-05-06T02:59:13.735Z,10.70
2023-05-06T03:01:40.666Z,10.78
2023-05-06T03:04:07.438Z,10.80
2023-05-06T03:06:34.125Z,10.79
2023-05-06T03:09:00.817Z,10.79
2023-05-06T03:11:27.585Z,10.89
2023-05-06T03:13:54.116Z,10.87
2023-05-06T03:16:20.831Z,10.86
2023-05-06T03:18:47.479Z,10.89
2023-05-06T03:21:14.258Z,10.94
2023-05-06T03:23:40.854Z,10.98
2023-05-06T03:26:07.530Z,11.00
2023-05-06T03:28:34.390Z,11.07
2023-05-06T03:31:02.872Z,11.13
2023-05-06T03:33:29.651Z,11.16
2023-05-06T03:35:56.267Z,11.18
2023-05-06T03:38:22.916Z,11.21
2023-05-06T03:40:50.224Z,11.24
2023-05-06T03:43:16.889Z,11.23
2023-05-06T03:45:43.509Z,11.27
2023-05-06T03:48:10.205Z,11.22
2023-05-06T03:50:36.886Z,11.21
2023-05-06T03:53:03.768Z,11.11
2023-05-06T03:55:30.431Z,11.07
2023-05-06T03:57:57.068Z,11.03
2023-05-06T04:00:23.695Z,11.18
2023-05-06T04:02:50.548Z,11.24
2023-05-06T04:05:17.291Z,11.26
2023-05-06T04:07:43.986Z,11.22
2023-05-06T04:10:10.786Z,11.23
2023-05-06T04:12:37.363Z,11.27
2023-05-06T04:15:04.315Z,11.36
2023-05-06T04:17:31.328Z,11.36
2023-05-06T04:19:57.950Z,11.42
2023-05-06T04:22:24.507Z,11.39
2023-05-06T04:24:51.042Z,11.42
2023-05-06T04:27:17.738Z,11.44
2023-05-06T04:29:44.278Z,11.42
2023-05-06T04:32:11.864Z,11.45
2023-05-06T04:34:38.596Z,11.53
2023-05-06T04:37:05.713Z,11.61
2023-05-06T04:39:32.626Z,11.67
2023-05-06T04:41:59.313Z,11.74
2023-05-06T04:44:26.110Z,11.68
2023-05-06T04:46:52.730Z,11.59
2023-05-06T04:49:19.342Z,11.54
2023-05-06T04:51:45.934Z,11.58
2023-05-06T04:54:12.484Z,11.76
2023-05-06T04:56:39.092Z,11.78
2023-05-06T04:59:05.782Z,11.89
2023-05-06T05:01:32.373Z,11.89
2023-05-06T05:03:58.962Z,12.05
2023-05-06T05:06:25.668Z,12.16
2023-05-06T05:08:53.083Z,12.36
2023-05-06T05:11:21.088Z,12.53
2023-05-06T05:13:47.678Z,12.61
2023-05-06T05:16:14.300Z,12.71
2023-05-06T05:18:40.954Z,12.80
2023-05-06T05:21:07.621Z,12.84
2023-05-06T05:23:34.280Z,12.96
2023-05-06T05:26:01.471Z,12.97
2023-05-06T05:28:28.124Z,12.99
2023-05-06T05:30:54.740Z,13.10
2023-05-06T05:33:21.519Z,12.95
2023-05-06T05:35:48.234Z,13.25
2023-05-06T05:38:15.370Z,13.42
2023-05-06T05:40:42.212Z,13.59
2023-05-06T05:43:08.896Z,13.71
2023-05-06T05:45:35.723Z,13.73
2023-05-06T05:48:02.486Z,13.98
2023-05-06T05:50:29.131Z,13.79
2023-05-06T05:52:55.872Z,13.74
2023-05-06T05:55:22.462Z,13.86
2023-05-06T05:57:49.065Z,13.84
2023-05-06T06:00:16.150Z,13.79
2023-05-06T06:02:42.849Z,13.87
2023-05-06T06:05:09.804Z,13.98
2023-05-06T06:07:36.710Z,14.00
2023-05-06T06:10:04.518Z,14.09
2023-05-06T06:12:31.240Z,14.17
2023-05-06T06:14:57.815Z,14.24
2023-05-06T06:17:24.668Z,14.49
2023-05-06T06:19:51.335Z,14.57
2023-05-06T06:22:18.156Z,14.66
2023-05-06T06:24:44.821Z,14.70
2023-05-06T06:27:11.431Z,14.73
2023-05-06T06:29:38.040Z,14.78
2023-05-06T06:32:07.612Z,14.83
2023-05-06T06:34:34.306Z,15.04
2023-05-06T06:37:01.186Z,15.17
2023-05-06T06:39:27.943Z,15.30
2023-05-06T06:41:56.923Z,15.53
2023-05-06T06:44:23.657Z,15.72
2023-05-06T06:46:50.491Z,15.84
2023-05-06T06:49:17.134Z,15.80
2023-05-06T06:51:43.716Z,15.99
2023-05-06T06:54:10.474Z,15.98
2023-05-06T06:56:37.123Z,15.98
2023-05-06T06:59:03.966Z,16.06
2023-05-06T07:01:33.331Z,16.20
2023-05-06T07:04:02.116Z,16.23
2023-05-06T07:06:28.780Z,16.35
2023-05-06T07:08:55.503Z,16.41
2023-05-06T07:11:22.133Z,16.49
2023-05-06T07:13:48.757Z,16.55
2023-05-06T07:16:15.438Z,16.61
2023-05-06T07:18:42.067Z,16.69
2023-05-06T07:21:08.799Z,16.84
2023-05-06T07:23:35.406Z,16.88
2023-05-06T07:26:02.096Z,16.90
2023-05-06T07:28:28.698Z,16.99
2023-05-06T07:30:55.855Z,16.98
2023-05-06T07:33:22.500Z,16.89
2023-05-06T07:35:49.338Z,17.01
2023-05-06T07:38:15.956Z,17.00
2023-05-06T07:40:42.750Z,17.02
2023-05-06T07:43:11.750Z,17.18
2023-05-06T07:45:38.289Z,17.21
2023-05-06T07:48:07.834Z,17.31
2023-05-06T07:50:34.570Z,17.28
2023-05-06T07:53:01.771Z,17.07
2023-05-06T07:55:29.375Z,17.29
2023-05-06T07:58:03.539Z,17.56
2023-05-06T08:00:30.221Z,17.58
2023-05-06T08:02:56.849Z,17.36
2023-05-06T08:05:23.639Z,17.41
2023-05-06T08:07:50.401Z,17.61
2023-05-06T08:10:20.065Z,17.68
2023-05-06T08:12:46.708Z,17.88
2023-05-06T08:15:13.746Z,18.02
2023-05-06T08:17:40.799Z,17.77
2023-05-06T08:20:08.273Z,17.71
2023-05-06T08:22:35.076Z,17.74
2023-05-06T08:25:02.088Z,17.90
2023-05-06T08:27:28.690Z,17.79
2023-05-06T08:29:55.405Z,17.96
2023-05-06T08:32:22.096Z,17.94
2023-05-06T08:34:48.751Z,17.85
2023-05-06T08:37:15.391Z,18.10
2023-05-06T08:39:41.999Z,18.15
2023-05-06T08:42:11.795Z,18.12
2023-05-06T08:44:38.904Z,18.07
2023-05-06T08:47:05.584Z,18.31
2023-05-06T08:49:32.214Z,18.63
2023-05-06T08:51:59.587Z,18.73
2023-05-06T08:54:26.702Z,18.75
2023-05-06T08:56:57.742Z,18.58
2023-05-06T08:59:25.945Z,18.44
2023-05-06T09:01:54.989Z,18.62
2023-05-06T09:04:22.029Z,18.53
2023-05-06T09:06:48.646Z,18.48
2023-05-06T09:09:15.352Z,18.78
2023-05-06T09:11:41.992Z,18.66
2023-05-06T09:14:17.441Z,18.92
2023-05-06T09:16:46.319Z,19.00
2023-05-06T09:19:14.241Z,18.64
2023-05-06T09:21:43.078Z,18.75
2023-05-06T09:24:11.564Z,18.78
2023-05-06T09:26:41.262Z,19.13
2023-05-06T09:29:08.164Z,18.73
2023-05-06T09:31:44.204Z,18.89
2023-05-06T09:34:12.512Z,19.25
2023-05-06T09:36:39.115Z,19.39
2023-05-06T09:39:06.211Z,19.16
2023-05-06T09:41:33.543Z,19.14
2023-05-06T09:44:00.428Z,19.13
2023-05-06T09:46:28.226Z,19.60
2023-05-06T09:48:57.110Z,19.89
2023-05-06T09:51:23.996Z,19.95
2023-05-06T09:53:52.572Z,19.91
2023-05-06T09:56:21.487Z,20.08
2023-05-06T09:58:48.845Z,20.08
2023-05-06T10:01:25.073Z,19.87
2023-05-06T10:04:01.445Z,19.71
2023-05-06T10:06:28.543Z,19.53
2023-05-06T10:08:55.937Z,19.39
2023-05-06T10:11:23.104Z,19.42
2023-05-06T10:13:49.955Z,19.69
2023-05-06T10:16:18.680Z,19.68
2023-05-06T10:18:46.731Z,19.88
2023-05-06T10:21:22.178Z,19.70
2023-05-06T10:23:56.520Z,19.65
2023-05-06T10:26:25.455Z,19.69
2023-05-06T10:28:54.329Z,19.95
2023-05-06T10:31:21.279Z,20.07
2023-05-06T10:33:50.988Z,20.02
2023-05-06T10:36:23.972Z,20.78
2023-05-06T10:38:57.310Z,21.27
2023-05-06T10:41:28.049Z,21.51
2023-05-06T10:43:57.028Z,21.50
2023-05-06T10:46:28.011Z,21.16
2023-05-06T10:49:04.454Z,21.60
2023-05-06T10:51:34.874Z,21.55
2023-05-06T10:54:09.569Z,21.88
2023-05-06T10:56:37.318Z,21.65
2023-05-06T10:59:09.440Z,22.09
2023-05-06T11:01:41.349Z,21.39
2023-05-06T11:04:12.682Z,21.55
2023-05-06T11:06:46.447Z,22.46
2023-05-06T11:09:20.527Z,23.12
2023-05-06T11:12:04.502Z,22.12
2023-05-06T11:14:36.151Z,21.62
2023-05-06T11:17:10.028Z,22.26
2023-05-06T11:19:38.389Z,22.51
2023-05-06T11:22:06.924Z,21.76
2023-05-06T11:24:41.893Z,21.48
2023-05-06T11:27:09.794Z,21.40
2023-05-06T11:29:36.479Z,21.67
2023-05-06T11:32:05.638Z,21.55
2023-05-06T11:34:32.982Z,21.75
2023-05-06T11:37:02.793Z,21.40
2023-05-06T11:39:36.483Z,21.09
2023-05-06T11:42:08.627Z,21.14
2023-05-06T11:44:39.730Z,21.02
2023-05-06T11:47:08.267Z,21.09
2023-05-06T11:49:41.468Z,20.97
2023-05-06T11:52:13.254Z,20.82
2023-05-06T11:54:42.342Z,20.35
2023-05-06T11:57:09.838Z,20.71
2023-05-06T11:59:38.373Z,20.98
2023-05-06T12:02:07.756Z,20.95
2023-05-06T12:04:45.531Z,20.63
2023-05-06T12:07:14.195Z,21.05
2023-05-06T12:09:51.943Z,21.34
2023-05-06T12:12:22.495Z,21.92
2023-05-06T12:14:50.721Z,21.39
2023-05-06T12:17:17.786Z,21.93
2023-05-06T12:19:46.601Z,22.37
2023-05-06T12:22:26.801Z,22.66
2023-05-06T12:24:53.462Z,22.85
2023-05-06T12:27:46.146Z,23.06
2023-05-06T12:30:13.436Z,22.94
2023-05-06T12:33:10.020Z,23.37
2023-05-06T12:35:37.872Z,24.09
2023-05-06T12:38:12.650Z,24.42
2023-05-06T12:40:40.516Z,24.47
2023-05-06T12:43:07.591Z,24.98
2023-05-06T12:45:34.239Z,25.44
2023-05-06T12:48:02.447Z,25.72
2023-05-06T12:50:36.682Z,25.58
2023-05-06T12:53:04.516Z,25.12
2023-05-06T12:55:36.322Z,24.02
2023-05-06T12:58:03.802Z,23.63
2023-05-06T13:00:30.854Z,23.13
2023-05-06T13:02:57.690Z,22.74
2023-05-06T13:05:24.539Z,22.75
2023-05-06T13:07:51.464Z,22.58
2023-05-06T13:10:18.093Z,23.11
2023-05-06T13:12:44.778Z,22.43
2023-05-06T13:15:11.672Z,23.20
2023-05-06T13:17:38.340Z,24.23
2023-05-06T13:20:06.215Z,22.70
2023-05-06T13:22:40.282Z,22.32
2023-05-06T13:25:13.865Z,22.23
2023-05-06T13:27:40.583Z,22.25
2023-05-06T13:30:08.913Z,22.02
2023-05-06T13:32:35.712Z,21.90
2023-05-06T13:35:02.437Z,21.90
2023-05-06T13:37:29.038Z,21.98
2023-05-06T13:39:55.625Z,21.86
2023-05-06T13:42:22.340Z,21.65
2023-05-06T13:44:48.933Z,21.65
2023-05-06T13:47:15.734Z,21.74
2023-05-06T13:49:42.563Z,21.78
2023-05-06T13:52:09.611Z,21.87
2023-05-06T13:54:36.150Z,21.98
2023-05-06T13:57:02.920Z,22.07
2023-05-06T13:59:29.647Z,21.92
2023-05-06T14:01:57.050Z,21.70
2023-05-06T14:04:23.749Z,21.59
2023-05-06T14:06:50.519Z,21.59
2023-05-06T14:09:18.061Z,21.69
2023-05-06T14:11:44.678Z,21.48
2023-05-06T14:14:11.312Z,21.60
2023-05-06T14:16:38.083Z,21.23
2023-05-06T14:19:05.780Z,21.02
2023-05-06T14:21:32.390Z,21.13
2023-05-06T14:23:59.005Z,21.07
2023-05-06T14:26:26.863Z,21.13
2023-05-06T14:28:53.714Z,21.29
2023-05-06T14:31:20.387Z,21.34
2023-05-06T14:33:47.090Z,21.34
2023-05-06T14:36:18.710Z,21.33
2023-05-06T14:38:45.556Z,22.74
2023-05-06T14:41:12.218Z,24.05
2023-05-06T14:43:38.803Z,24.31
2023-05-06T14:46:05.601Z,24.87
2023-05-06T14:48:32.333Z,25.00
2023-05-06T14:50:59.614Z,24.66
2023-05-06T14:53:26.191Z,25.63
2023-05-06T14:55:52.799Z,26.12
2023-05-06T14:58:19.421Z,25.20
2023-05-06T15:00:46.051Z,25.79
2023-05-06T15:03:12.609Z,26.08
2023-05-06T15:05:39.290Z,25.63
2023-05-06T15:08:06.142Z,25.94
2023-05-06T15:10:32.847Z,25.80
2023-05-06T15:12:59.664Z,25.81
2023-05-06T15:15:26.320Z,25.63
2023-05-06T15:17:53.020Z,26.98
2023-05-06T15:20:19.744Z,26.57
2023-05-06T15:22:46.500Z,26.77
2023-05-06T15:25:22.487Z,26.81
2023-05-06T15:27:53.088Z,26.26
2023-05-06T15:30:19.816Z,26.83
2023-05-06T15:32:49.015Z,27.20
2023-05-06T15:35:15.794Z,26.69
2023-05-06T15:37:42.444Z,27.90
2023-05-06T15:40:13.388Z,28.31
2023-05-06T15:42:40.791Z,27.77
2023-05-06T15:45:08.041Z,28.15
2023-05-06T15:47:34.789Z,27.78
2023-05-06T15:50:01.915Z,27.91
2023-05-06T15:52:28.662Z,28.99
2023-05-06T15:54:59.453Z,28.04
2023-05-06T15:57:26.568Z,27.35
2023-05-06T15:59:53.186Z,27.75
2023-05-06T16:04:49.748Z,28.38
2023-05-06T16:07:16.803Z,27.67
2023-05-06T16:09:44.289Z,27.96
2023-05-06T16:12:10.906Z,28.03
2023-05-06T16:14:37.562Z,27.41
2023-05-06T16:17:04.205Z,28.12
2023-05-06T16:19:32.158Z,27.57
2023-05-06T16:21:58.767Z,26.80
2023-05-06T16:24:25.407Z,24.73
2023-05-06T16:26:52.030Z,22.70
2023-05-06T16:29:20.689Z,22.57
2023-05-06T16:31:48.426Z,22.78
2023-05-06T16:34:15.426Z,22.99
2023-05-06T16:36:42.126Z,22.48
2023-05-06T16:39:08.882Z,22.17
2023-05-06T16:41:35.462Z,22.51
2023-05-06T16:44:02.113Z,22.12
2023-05-06T16:46:29.103Z,21.76
2023-05-06T16:48:56.088Z,21.13
2023-05-06T16:51:22.789Z,20.93
2023-05-06T16:53:49.495Z,20.71
2023-05-06T16:56:16.161Z,20.56
2023-05-06T16:58:42.929Z,20.25
2023-05-06T17:01:09.990Z,20.18
2023-05-06T17:03:40.514Z,20.07
2023-05-06T17:06:07.823Z,20.11
2023-05-06T17:08:36.249Z,19.83
2023-05-06T17:11:06.498Z,19.61
2023-05-06T17:13:33.519Z,19.48
2023-05-06T17:16:00.256Z,19.23
2023-05-06T17:18:26.908Z,19.18
2023-05-06T17:20:56.408Z,18.93
2023-05-06T17:23:23.674Z,18.82
2023-05-06T17:25:50.512Z,18.65
2023-05-06T17:28:18.508Z,18.47
2023-05-06T17:30:45.667Z,18.40
2023-05-06T17:33:12.331Z,18.20
2023-05-06T17:35:39.695Z,18.01
2023-05-06T17:38:06.547Z,17.91
2023-05-06T17:40:33.325Z,17.66
2023-05-06T17:43:00.703Z,17.37
2023-05-06T17:45:28.499Z,17.12
2023-05-06T17:47:56.732Z,16.99
2023-05-06T17:50:23.837Z,17.00
2023-05-06T17:52:52.901Z,17.12
2023-05-06T17:55:22.897Z,17.11
2023-05-06T17:57:52.892Z,17.04
2023-05-06T18:00:20.265Z,17.04
2023-05-06T18:02:47.080Z,16.81
2023-05-06T18:05:13.995Z,16.75
2023-05-06T18:07:41.162Z,16.75
2023-05-06T18:10:09.787Z,16.65
2023-05-06T18:12:37.093Z,16.73
2023-05-06T18:15:04.829Z,16.53
2023-05-06T18:17:31.501Z,16.43
2023-05-06T18:19:58.518Z,16.51
2023-05-06T18:22:25.193Z,16.58
2023-05-06T18:24:55.225Z,16.49
2023-05-06T18:27:22.959Z,16.46
2023-05-06T18:29:59.425Z,16.48
2023-05-06T18:32:26.198Z,16.46
2023-05-06T18:34:52.920Z,16.26
2023-05-06T18:37:19.528Z,16.11
2023-05-06T18:39:46.213Z,15.96
2023-05-06T18:42:12.849Z,15.95
2023-05-06T18:44:39.502Z,15.91
2023-05-06T18:47:06.102Z,15.95
2023-05-06T18:49:32.758Z,15.84
2023-05-06T18:52:00.245Z,15.78
2023-05-06T18:54:26.888Z,15.73
2023-05-06T18:56:54.760Z,15.92
2023-05-06T18:59:21.654Z,15.95
2023-05-06T19:01:48.269Z,15.79
2023-05-06T19:04:15.037Z,15.80
2023-05-06T19:06:41.715Z,15.75
2023-05-06T19:09:08.539Z,15.63
2023-05-06T19:11:35.512Z,15.58
2023-05-06T19:14:02.319Z,15.56
2023-05-06T19:16:29.235Z,15.50
2023-05-06T19:18:55.960Z,15.56
2023-05-06T19:21:22.590Z,15.46
2023-05-06T19:23:49.820Z,15.49
2023-05-06T19:26:16.582Z,15.56
2023-05-06T19:28:43.257Z,15.51
2023-05-06T19:31:10.839Z,15.50
2023-05-06T19:33:38.089Z,15.31
2023-05-06T19:36:05.627Z,15.23
2023-05-06T19:38:32.297Z,15.18
2023-05-06T19:40:58.917Z,15.19
2023-05-06T19:43:25.820Z,15.04
2023-05-06T19:45:52.458Z,14.85
2023-05-06T19:48:19.694Z,14.98
2023-05-06T19:50:46.325Z,14.77
2023-05-06T19:53:13.000Z,14.79
2023-05-06T19:55:39.640Z,14.93
2023-05-06T19:58:06.380Z,15.05
2023-05-06T20:00:33.102Z,14.98
2023-05-06T20:03:00.935Z,14.85
2023-05-06T20:05:32.198Z,14.58
2023-05-06T20:08:02.083Z,14.34
2023-05-06T20:10:29.064Z,14.20
2023-05-06T20:12:57.842Z,14.29
2023-05-06T20:15:26.624Z,14.37
2023-05-06T20:17:53.373Z,14.43
2023-05-06T20:20:20.102Z,14.48
2023-05-06T20:22:49.716Z,14.44
2023-05-06T20:25:17.583Z,14.41
2023-05-06T20:27:45.416Z,14.38
2023-05-06T20:30:12.524Z,14.22
2023-05-06T20:32:40.453Z,14.18
2023-05-06T20:35:08.498Z,14.19
2023-05-06T20:37:36.301Z,14.10
2023-05-06T20:40:04.843Z,13.88
2023-05-06T20:42:31.911Z,13.78
2023-05-06T20:44:59.181Z,13.82
2023-05-06T20:47:26.353Z,13.82
2023-05-06T20:49:53.186Z,13.87
2023-05-06T20:52:22.248Z,13.86
2023-05-06T20:54:49.140Z,13.84
2023-05-06T20:57:16.738Z,13.80
2023-05-06T20:59:43.818Z,13.83
2023-05-06T21:02:10.535Z,13.77
2023-05-06T21:04:37.370Z,13.71
2023-05-06T21:07:04.024Z,13.72
2023-05-06T21:09:30.654Z,13.49
2023-05-06T21:11:58.846Z,13.49
2023-05-06T21:14:26.626Z,13.52
2023-05-06T21:16:53.625Z,13.58
2023-05-06T21:19:20.671Z,13.49
2023-05-06T21:21:47.410Z,13.42
2023-05-06T21:24:14.055Z,13.50
2023-05-06T21:26:40.685Z,13.51
2023-05-06T21:29:07.470Z,13.45
2023-05-06T21:31:34.267Z,13.24
2023-05-06T21:34:01.356Z,13.05
2023-05-06T21:36:27.993Z,13.00
2023-05-06T21:39:12.199Z,13.11
2023-05-06T21:41:40.054Z,13.07
2023-05-06T21:44:08.405Z,12.97
2023-05-06T21:46:35.983Z,12.98
2023-05-06T21:49:02.702Z,12.99
2023-05-06T21:51:34.248Z,13.00
2023-05-06T21:54:01.092Z,12.97
2023-05-06T21:56:27.812Z,13.11
2023-05-06T21:58:58.148Z,13.18
2023-05-06T22:01:29.339Z,13.03
2023-05-06T22:03:56.077Z,13.08
2023-05-06T22:06:22.947Z,13.09
2023-05-06T22:08:49.601Z,13.16
2023-05-06T22:11:17.346Z,13.21
2023-05-06T22:13:43.979Z,13.19
2023-05-06T22:16:10.688Z,13.26
2023-05-06T22:18:41.689Z,13.32
2023-05-06T22:21:09.648Z,13.42
2023-05-06T22:23:36.673Z,13.42
2023-05-06T22:26:03.375Z,13.47
2023-05-06T22:28:30.035Z,13.58
2023-05-06T22:30:56.670Z,13.55
2023-05-06T22:33:23.323Z,13.56
2023-05-06T22:35:50.027Z,13.53
2023-05-06T22:38:16.659Z,13.53
2023-05-06T22:40:43.318Z,13.56
2023-05-06T22:43:09.922Z,13.55
2023-05-06T22:45:36.733Z,13.43
2023-05-06T22:48:03.789Z,13.48
2023-05-06T22:50:30.969Z,13.58
2023-05-06T22:52:57.599Z,13.54
2023-05-06T22:55:24.209Z,13.38
2023-05-06T22:57:53.827Z,13.35
2023-05-06T23:00:20.869Z,13.25
2023-05-06T23:02:47.488Z,13.24
2023-05-06T23:05:14.156Z,13.41
2023-05-06T23:07:40.967Z,13.42
2023-05-06T23:10:08.196Z,13.38
2023-05-06T23:12:35.210Z,13.28
2023-05-06T23:15:02.474Z,13.26
2023-05-06T23:17:29.152Z,13.23
2023-05-06T23:19:56.004Z,13.18
2023-05-06T23:22:22.722Z,13.30
2023-05-06T23:24:49.979Z,13.30
2023-05-06T23:27:16.613Z,13.25
2023-05-06T23:29:43.343Z,13.28
2023-05-06T23:32:09.874Z,13.20
2023-05-06T23:34:36.463Z,13.25
2023-05-06T23:37:03.119Z,13.21
2023-05-06T23:39:32.506Z,13.24
2023-05-06T23:42:00.880Z,13.12
2023-05-06T23:44:27.546Z,13.15
2023-05-06T23:46:54.348Z,13.24
2023-05-06T23:49:21.203Z,13.23
2023-05-06T23:51:47.736Z,13.28
2023-05-06T23:54:14.360Z,13.17
2023-05-06T23:56:41.005Z,13.15
2023-05-06T23:59:07.742Z,13.14
